Time;durP1;ratioP1;P1;durP2;ratioP2;P2;SDS_P1;SDS_P2;PMS_P1;PMS_P2;Temp;Humidity;BMP_temperature;BMP_pressure;BME280_temperature;BME280_humidity;BME280_pressure;Samples;Min_cycle;Max_cycle;Signal;HPM_P1;HPM_P2
2024/02/03 00:02:32;;;;;;;11.10;7.60;;;;;;;4.43;100.00;99109.60;437761;1256;139749;-58
2024/02/03 00:12:39;;;;;;;8.60;7.70;;;;;;;4.48;100.00;99097.94;434883;1254;139760;-58
2024/02/03 00:22:49;;;;;;;7.30;6.50;;;;;;;4.52;100.00;99078.88;435719;1251;140530;-58
2024/02/03 00:32:55;;;;;;;10.60;8.10;;;;;;;4.58;100.00;99074.95;434638;1254;139153;-58
2024/02/03 00:43:01;;;;;;;10.70;7.70;;;;;;;4.62;100.00;99062.96;434424;1254;139169;-58
2024/02/03 00:53:07;;;;;;;9.40;7.40;;;;;;;4.66;100.00;99050.80;434549;1254;139649;-59
2024/02/03 01:03:13;;;;;;;10.60;7.50;;;;;;;4.71;100.00;99061.84;434758;1256;139761;-58
2024/02/03 01:13:19;;;;;;;9.10;7.90;;;;;;;4.75;100.00;99050.00;434997;1253;139955;-58
2024/02/03 01:23:25;;;;;;;9.90;8.90;;;;;;;4.80;100.00;99038.52;434424;1254;140993;-58
2024/02/03 01:33:31;;;;;;;11.90;7.10;;;;;;;4.85;100.00;99040.33;434785;1256;139686;-58
2024/02/03 01:43:38;;;;;;;11.30;8.50;;;;;;;4.92;100.00;99048.19;435157;1253;139196;-58
2024/02/03 01:53:45;;;;;;;9.20;7.80;;;;;;;4.95;100.00;99045.42;434607;1254;138844;-58
2024/02/03 02:03:51;;;;;;;8.70;6.80;;;;;;;4.97;100.00;99043.07;434480;1256;140550;-59
2024/02/03 02:13:57;;;;;;;8.20;7.40;;;;;;;4.99;100.00;99049.37;435200;1256;140626;-59
2024/02/03 02:24:03;;;;;;;8.60;7.70;;;;;;;5.01;100.00;99047.23;434451;1254;139717;-59
2024/02/03 02:34:09;;;;;;;9.40;8.00;;;;;;;5.04;100.00;99048.09;434478;1256;138903;-59
2024/02/03 02:44:15;;;;;;;11.90;8.60;;;;;;;5.07;100.00;99047.77;434600;1256;139669;-59
2024/02/03 02:54:21;;;;;;;9.10;8.10;;;;;;;5.09;100.00;99038.51;434442;1256;140037;-58
2024/02/03 03:04:27;;;;;;;9.10;8.10;;;;;;;5.14;100.00;99043.62;434633;1253;140226;-58
2024/02/03 03:14:33;;;;;;;9.40;7.00;;;;;;;5.20;100.00;99052.34;434779;1254;138699;-58
2024/02/03 03:24:39;;;;;;;9.00;7.60;;;;;;;5.24;100.00;99041.02;434449;1256;139852;-58
2024/02/03 03:34:45;;;;;;;7.70;6.70;;;;;;;5.28;100.00;99046.05;437124;1253;139211;-58
2024/02/03 03:44:51;;;;;;;7.00;6.20;;;;;;;5.32;100.00;99038.52;434763;1254;140291;-57
2024/02/03 03:55:00;;;;;;;8.80;7.90;;;;;;;5.38;100.00;99043.09;434900;1254;138983;-58
2024/02/03 04:05:09;;;;;;;8.00;6.30;;;;;;;5.45;100.00;99032.52;435178;1254;140283;-58
2024/02/03 04:15:15;;;;;;;6.30;5.60;;;;;;;5.49;100.00;99042.88;435211;1254;139162;-58
2024/02/03 04:25:21;;;;;;;7.50;6.70;;;;;;;5.53;100.00;99037.12;435356;1254;139151;-58
2024/02/03 04:35:30;;;;;;;6.60;6.00;;;;;;;5.57;100.00;99032.97;436580;1254;139289;-59
2024/02/03 04:45:37;;;;;;;8.60;7.20;;;;;;;5.59;100.00;99040.48;435448;1254;140264;-59
2024/02/03 04:55:43;;;;;;;6.70;6.00;;;;;;;5.60;100.00;99043.35;435261;1253;139626;-59
2024/02/03 05:05:49;;;;;;;8.60;7.10;;;;;;;5.58;100.00;99043.97;434987;1256;139137;-59
2024/02/03 05:15:55;;;;;;;7.40;6.60;;;;;;;5.57;100.00;99044.90;434616;1256;139093;-58
2024/02/03 05:26:01;;;;;;;6.60;6.00;;;;;;;5.58;100.00;99050.89;434896;1256;139706;-59
2024/02/03 05:36:08;;;;;;;6.80;6.20;;;;;;;5.61;100.00;99053.39;434816;1256;140032;-58
2024/02/03 05:46:14;;;;;;;5.60;4.90;;;;;;;5.63;100.00;99046.21;435438;1254;139177;-58
2024/02/03 05:56:20;;;;;;;7.50;6.80;;;;;;;5.63;100.00;99053.31;435495;1254;139475;-58
2024/02/03 06:06:26;;;;;;;7.10;6.50;;;;;;;5.62;100.00;99058.19;434738;1256;139627;-58
2024/02/03 06:16:36;;;;;;;8.00;7.20;;;;;;;5.61;100.00;99060.48;434629;1254;139141;-58
2024/02/03 06:26:42;;;;;;;7.80;7.00;;;;;;;5.63;100.00;99069.10;434886;1253;139105;-58
2024/02/03 06:36:48;;;;;;;8.20;7.40;;;;;;;5.64;100.00;99076.66;434611;1252;140232;-58
2024/02/03 06:46:54;;;;;;;8.00;7.30;;;;;;;5.66;100.00;99074.48;434628;1253;139762;-58
2024/02/03 06:57:00;;;;;;;7.60;6.90;;;;;;;5.69;100.00;99080.21;434788;1256;143638;-58
2024/02/03 07:07:06;;;;;;;6.70;6.00;;;;;;;5.71;100.00;99070.23;434780;1254;139310;-57
2024/02/03 07:17:12;;;;;;;8.60;7.80;;;;;;;5.73;100.00;99066.63;434529;1253;140400;-59
2024/02/03 07:27:19;;;;;;;8.60;7.80;;;;;;;5.78;100.00;99076.15;434504;1256;139180;-59
2024/02/03 07:37:24;;;;;;;9.30;8.40;;;;;;;5.84;100.00;99078.92;434403;1254;139305;-59
2024/02/03 07:47:30;;;;;;;11.30;9.30;;;;;;;5.91;100.00;99074.08;434088;1256;139750;-58
2024/02/03 07:57:36;;;;;;;9.10;8.20;;;;;;;5.98;100.00;99073.73;434628;1256;139831;-58
2024/02/03 08:07:42;;;;;;;10.50;9.50;;;;;;;6.03;100.00;99072.57;434606;1254;140497;-57
2024/02/03 08:17:48;;;;;;;9.60;8.50;;;;;;;6.10;100.00;99063.20;434288;1254;140594;-58
2024/02/03 08:27:54;;;;;;;10.30;9.40;;;;;;;6.17;100.00;99073.25;434621;1253;140352;-58
2024/02/03 08:38:00;;;;;;;11.50;10.20;;;;;;;6.27;100.00;99087.14;434397;1256;139200;-59
2024/02/03 08:48:07;;;;;;;12.70;9.90;;;;;;;6.42;100.00;99084.56;434140;1254;140922;-59
2024/02/03 08:58:14;;;;;;;8.70;7.80;;;;;;;6.63;100.00;99090.06;436269;1254;255566;-58
2024/02/03 09:08:20;;;;;;;8.40;7.70;;;;;;;6.75;100.00;99086.95;434599;1256;140090;-58
2024/02/03 09:18:25;;;;;;;7.40;6.70;;;;;;;6.77;100.00;99098.84;434334;1256;139744;-58
2024/02/03 09:28:32;;;;;;;6.80;6.10;;;;;;;6.79;100.00;99089.88;434401;1256;183938;-57
2024/02/03 09:38:38;;;;;;;7.50;6.70;;;;;;;6.87;100.00;99092.52;435050;1256;140144;-58
2024/02/03 09:48:44;;;;;;;6.70;6.10;;;;;;;7.00;100.00;99104.51;434611;1256;139141;-58
2024/02/03 09:58:50;;;;;;;6.70;6.10;;;;;;;7.12;100.00;99101.72;435521;1256;139140;-57
2024/02/03 10:08:56;;;;;;;8.20;7.40;;;;;;;7.25;100.00;99108.70;434346;1256;139208;-58
2024/02/03 10:19:04;;;;;;;7.20;6.60;;;;;;;7.40;100.00;99105.88;434302;1256;140614;-59
2024/02/03 10:29:18;;;;;;;6.70;6.10;;;;;;;7.56;100.00;99100.10;434417;1254;140616;-58
2024/02/03 10:39:24;;;;;;;9.30;7.00;;;;;;;7.64;100.00;99100.48;434902;1259;139252;-57
2024/02/03 10:49:34;;;;;;;7.80;6.70;;;;;;;7.71;100.00;99100.05;434652;1256;138802;-58
2024/02/03 10:59:40;;;;;;;7.30;6.60;;;;;;;7.80;100.00;99107.88;436189;1256;138843;-58
2024/02/03 11:09:46;;;;;;;6.80;5.80;;;;;;;7.84;100.00;99112.66;434597;1256;139174;-58
2024/02/03 11:19:55;;;;;;;7.80;7.00;;;;;;;7.82;100.00;99113.16;434638;1254;139373;-59
2024/02/03 11:30:08;;;;;;;7.20;6.50;;;;;;;7.83;100.00;99106.98;435260;1254;139462;-57
2024/02/03 11:40:16;;;;;;;6.20;5.60;;;;;;;7.96;100.00;99110.61;436584;1256;138839;-58
2024/02/03 11:50:20;;;;;;;;;;;;;;;8.06;100.00;99096.37;434365;1255;139283;-58
2024/02/03 12:00:26;;;;;;;7.60;6.20;;;;;;;8.20;100.00;99104.98;434397;1257;125688;-58
2024/02/03 12:10:32;;;;;;;6.40;5.10;;;;;;;8.45;100.00;99095.08;434519;1256;139869;-57
2024/02/03 12:20:38;;;;;;;6.60;6.10;;;;;;;8.64;100.00;99092.81;435133;1257;139633;-59
2024/02/03 12:30:44;;;;;;;6.70;6.10;;;;;;;8.66;100.00;99100.02;434767;1257;140482;-60
2024/02/03 12:40:50;;;;;;;6.70;6.10;;;;;;;8.63;100.00;99094.98;434299;1255;140356;-59
2024/02/03 12:50:59;;;;;;;6.10;5.60;;;;;;;8.67;100.00;99088.09;434617;1256;139539;-59
2024/02/03 13:01:05;;;;;;;5.70;5.00;;;;;;;8.74;100.00;99090.49;438179;1254;141750;-58
2024/02/03 13:11:11;;;;;;;7.10;6.40;;;;;;;8.82;100.00;99099.51;434860;1254;141050;-57
2024/02/03 13:21:21;;;;;;;6.20;5.70;;;;;;;9.01;100.00;99100.27;434643;1254;139540;-58
2024/02/03 13:31:28;;;;;;;6.10;5.50;;;;;;;9.02;100.00;99112.42;434668;1255;140194;-58
2024/02/03 13:41:34;;;;;;;5.20;4.70;;;;;;;8.97;100.00;99121.80;434354;1257;139767;-57
2024/02/03 13:51:40;;;;;;;5.50;5.00;;;;;;;8.87;100.00;99128.39;434409;1257;139410;-59
2024/02/03 14:01:46;;;;;;;5.50;5.00;;;;;;;8.72;100.00;99121.46;434616;1254;139331;-59
2024/02/03 14:11:52;;;;;;;6.30;5.20;;;;;;;8.56;100.00;99127.86;434354;1255;139331;-58
2024/02/03 14:22:00;;;;;;;5.50;4.80;;;;;;;8.40;100.00;99125.34;434503;1253;139892;-55
2024/02/03 14:43:23;;;;;;;5.40;4.20;;;;;;;8.11;100.00;99133.91;434960;1257;139818;-62
2024/02/03 14:53:29;;;;;;;5.50;5.00;;;;;;;8.05;100.00;99137.09;437073;1253;139724;-63
2024/02/03 15:03:35;;;;;;;6.00;5.50;;;;;;;8.02;100.00;99144.75;434551;1254;140810;-62
2024/02/03 15:13:41;;;;;;;6.30;5.10;;;;;;;7.93;100.00;99134.99;434891;1254;139253;-63
2024/02/03 15:23:46;;;;;;;5.30;4.90;;;;;;;7.79;100.00;99140.17;434521;1257;140292;-64
2024/02/03 15:33:52;;;;;;;7.50;6.40;;;;;;;7.60;100.00;99155.91;434533;1257;139355;-65
2024/02/03 15:43:59;;;;;;;6.90;5.40;;;;;;;7.52;100.00;99154.80;434517;1254;139273;-64
2024/02/03 15:54:06;;;;;;;6.80;6.00;;;;;;;7.49;100.00;99160.06;435491;1254;139873;-65
2024/02/03 16:04:12;;;;;;;9.20;6.90;;;;;;;7.50;100.00;99166.23;435532;1254;139815;-65
2024/02/03 16:14:19;;;;;;;7.20;6.20;;;;;;;7.42;100.00;99175.27;435854;1257;138919;-65
2024/02/03 16:24:26;;;;;;;6.10;5.40;;;;;;;7.37;100.00;99176.20;434939;1254;140238;-65
2024/02/03 16:34:32;;;;;;;7.60;5.50;;;;;;;7.32;100.00;99180.67;435384;1254;138871;-66
2024/02/03 16:44:38;;;;;;;5.70;5.00;;;;;;;7.20;100.00;99184.67;435422;1254;139259;-65
2024/02/03 16:54:44;;;;;;;8.40;6.70;;;;;;;6.99;100.00;99187.06;436512;1253;139499;-66
2024/02/03 17:04:51;;;;;;;8.40;7.10;;;;;;;6.90;100.00;99192.95;435570;1256;139009;-64
2024/02/03 17:14:57;;;;;;;8.80;6.50;;;;;;;6.83;100.00;99198.19;435610;1254;138914;-65
2024/02/03 17:25:03;;;;;;;7.00;6.10;;;;;;;6.70;100.00;99203.58;434961;1254;139651;-65
2024/02/03 17:35:10;;;;;;;6.30;5.00;;;;;;;6.60;100.00;99208.49;435897;1256;139195;-65
2024/02/03 17:45:17;;;;;;;8.30;5.30;;;;;;;6.57;100.00;99200.27;440302;1254;140427;-71
2024/02/03 17:55:26;;;;;;;5.20;4.40;;;;;;;6.51;100.00;99201.83;438241;1254;139557;-71
2024/02/03 18:05:34;;;;;;;5.70;5.20;;;;;;;6.42;100.00;99212.02;435571;1258;139975;-69
2024/02/03 18:15:40;;;;;;;6.50;5.50;;;;;;;6.42;100.00;99214.11;435358;1254;139661;-70
2024/02/03 18:25:46;;;;;;;8.90;7.90;;;;;;;6.52;100.00;99197.79;434272;1258;138681;-69
2024/02/03 18:35:52;;;;;;;8.10;7.20;;;;;;;6.72;100.00;99193.90;433770;1256;138815;-69
2024/02/03 18:45:59;;;;;;;5.60;5.10;;;;;;;6.87;100.00;99194.83;434220;1254;139201;-70
2024/02/03 18:56:06;;;;;;;6.00;5.40;;;;;;;6.95;100.00;99191.64;435424;1254;139493;-69
2024/02/03 19:06:13;;;;;;;5.20;4.60;;;;;;;7.04;100.00;99183.14;435540;1253;139207;-69
2024/02/03 19:16:20;;;;;;;6.60;5.20;;;;;;;7.08;100.00;99185.71;434965;1254;139341;-68
2024/02/03 19:26:26;;;;;;;7.50;6.10;;;;;;;6.93;100.00;99181.48;435690;1257;138870;-68
2024/02/03 19:36:32;;;;;;;5.20;4.60;;;;;;;6.60;100.00;99173.52;436688;1254;139383;-68
2024/02/03 19:46:39;;;;;;;6.50;5.60;;;;;;;6.30;100.00;99171.45;434953;1257;139102;-69
2024/02/03 19:56:45;;;;;;;5.70;5.20;;;;;;;6.11;100.00;99179.39;436629;1256;139140;-67
2024/02/03 20:06:51;;;;;;;5.60;5.00;;;;;;;6.17;100.00;99182.77;439876;1251;139194;-69
2024/02/03 20:16:58;;;;;;;8.40;5.50;;;;;;;6.35;100.00;99181.29;435868;1254;139340;-62
2024/02/03 20:27:05;;;;;;;5.70;5.10;;;;;;;6.51;100.00;99177.14;435603;1256;140838;-68
2024/02/03 20:37:11;;;;;;;7.30;6.20;;;;;;;6.53;100.00;99168.31;435822;1256;139943;-67
2024/02/03 20:47:17;;;;;;;6.40;5.00;;;;;;;6.39;100.00;99147.17;435461;1253;139293;-65
2024/02/03 20:57:23;;;;;;;6.10;5.50;;;;;;;6.29;100.00;99141.39;435017;1254;721866;-59
2024/02/03 21:07:31;;;;;;;6.30;5.40;;;;;;;6.38;100.00;99123.38;435544;1254;139603;-60
2024/02/03 21:17:38;;;;;;;7.00;5.70;;;;;;;6.55;100.00;99139.73;437095;1256;139641;-59
2024/02/03 21:27:45;;;;;;;6.40;5.80;;;;;;;6.70;100.00;99132.60;439703;1253;140257;-72
2024/02/03 21:37:50;;;;;;;;;;;;;;;6.85;100.00;99121.56;436558;1256;139570;-70
2024/02/03 21:47:56;;;;;;;4.80;4.00;;;;;;;6.98;100.00;99115.27;434267;1256;127033;-64
2024/02/03 21:58:03;;;;;;;4.10;3.80;;;;;;;7.02;100.00;99103.88;433630;1259;139264;-65
2024/02/03 22:08:09;;;;;;;5.70;4.50;;;;;;;7.05;100.00;99102.70;433819;1259;139133;-64
2024/02/03 22:18:16;;;;;;;5.20;3.90;;;;;;;7.00;100.00;99095.96;433966;1256;139694;-64
2024/02/03 22:28:21;;;;;;;;;;;;;;;6.98;100.00;99095.61;434229;1259;139577;-64
2024/02/03 22:38:27;;;;;;;3.00;2.50;;;;;;;6.88;100.00;99087.60;436984;1256;125616;-64
2024/02/03 22:48:33;;;;;;;3.40;2.80;;;;;;;6.78;100.00;99092.17;433784;1257;139396;-64
2024/02/03 22:58:40;;;;;;;4.20;3.40;;;;;;;6.69;100.00;99095.80;435226;1256;141140;-63
2024/02/03 23:08:46;;;;;;;4.50;3.50;;;;;;;6.63;100.00;99093.73;434512;1259;138717;-64
2024/02/03 23:18:52;;;;;;;6.50;3.90;;;;;;;6.61;100.00;99075.70;433845;1259;139147;-64
2024/02/03 23:28:59;;;;;;;7.60;4.20;;;;;;;6.56;100.00;99072.52;433876;1259;139156;-64
2024/02/03 23:39:05;;;;;;;4.10;3.20;;;;;;;6.46;100.00;99071.33;434505;1259;139049;-64
2024/02/03 23:49:13;;;;;;;4.20;3.20;;;;;;;6.39;100.00;99066.64;434929;1259;139713;-64
2024/02/03 23:59:20;;;;;;;3.10;2.10;;;;;;;6.29;100.00;99078.52;434007;1259;139028;-64
